Pagina principale
METAR-TAF:

METAR-TAF

Aeroporti :

Mannheim, Germania

latitudine: 49-28-21N, longitudine: 008-30-56E, altezza: 100 m

Osservazione

Il bollettino è stato emesso 1 ora e 57 minuti fa, alle 17:20 UTC
Vento 8 kt da sud
Temperature 18°C
Umidità 37%
Pressione 1010 hPa
Visibilità 10 km o più
nessuna nube inferiore a 1500 m e nessun cumulonembo

METAR: EDFM 161720Z 18008KT CAVOK 18/03 Q1010

Ora: 20:17 (19:17 UTC)


TAF: mancante

Osservazioni e previsioni meteorologiche di più di 4000 aeroporti (messaggi METAR e TAF).

Le stazioni disponibili sono rappresentate dai dischi gialli e rossi sulla carta.

Puntare il mouse per vedere il nome della stazione.

Clicca sopra per visualizzare le osservazioni e previsioni meteorologiche.

Per cambiare la mappa : fare clic sui pulsanti verdi con una croce nera per ingrandire, il pulsante verde con un trattino per diminuire, o sulla freccia verde per le mappe adiacenti.


METAR-TAF: